sensor_id;sensor_type;location;lat;lon;timestamp;P1;durP1;ratioP1;P2;durP2;ratioP2
55372;SDS011;41249;47.838;16.490;2022-12-24T00:00:00;21.42;;;12.25;;
55372;SDS011;41249;47.838;16.490;2022-12-24T00:02:27;21.40;;;12.82;;
55372;SDS011;41249;47.838;16.490;2022-12-24T00:04:54;22.45;;;12.60;;
55372;SDS011;41249;47.838;16.490;2022-12-24T00:07:26;23.33;;;13.77;;
55372;SDS011;41249;47.838;16.490;2022-12-24T00:09:53;14.82;;;9.50;;
55372;SDS011;41249;47.838;16.490;2022-12-24T00:12:19;24.63;;;11.07;;
55372;SDS011;41249;47.838;16.490;2022-12-24T00:14:46;20.33;;;10.82;;
55372;SDS011;41249;47.838;16.490;2022-12-24T00:17:12;26.85;;;12.57;;
55372;SDS011;41249;47.838;16.490;2022-12-24T00:19:39;21.83;;;10.70;;
55372;SDS011;41249;47.838;16.490;2022-12-24T00:22:08;13.20;;;8.70;;
55372;SDS011;41249;47.838;16.490;2022-12-24T00:24:35;15.18;;;8.95;;
55372;SDS011;41249;47.838;16.490;2022-12-24T00:27:01;16.95;;;9.80;;
55372;SDS011;41249;47.838;16.490;2022-12-24T00:29:28;15.18;;;9.18;;
55372;SDS011;41249;47.838;16.490;2022-12-24T00:31:55;15.40;;;9.23;;
55372;SDS011;41249;47.838;16.490;2022-12-24T00:34:22;16.10;;;10.18;;
55372;SDS011;41249;47.838;16.490;2022-12-24T00:36:50;20.67;;;12.70;;
55372;SDS011;41249;47.838;16.490;2022-12-24T00:39:17;17.88;;;11.07;;
55372;SDS011;41249;47.838;16.490;2022-12-24T00:41:44;18.73;;;11.35;;
55372;SDS011;41249;47.838;16.490;2022-12-24T00:44:10;19.88;;;13.65;;
55372;SDS011;41249;47.838;16.490;2022-12-24T00:46:38;14.30;;;9.30;;
55372;SDS011;41249;47.838;16.490;2022-12-24T00:49:06;13.60;;;8.35;;
55372;SDS011;41249;47.838;16.490;2022-12-24T00:51:34;13.45;;;9.40;;
55372;SDS011;41249;47.838;16.490;2022-12-24T00:54:02;14.75;;;9.20;;
55372;SDS011;41249;47.838;16.490;2022-12-24T00:56:29;21.92;;;13.13;;
55372;SDS011;41249;47.838;16.490;2022-12-24T00:58:56;20.95;;;13.93;;
55372;SDS011;41249;47.838;16.490;2022-12-24T01:01:23;14.32;;;10.07;;
55372;SDS011;41249;47.838;16.490;2022-12-24T01:03:50;14.68;;;7.32;;
55372;SDS011;41249;47.838;16.490;2022-12-24T01:06:18;7.18;;;5.22;;
55372;SDS011;41249;47.838;16.490;2022-12-24T01:08:49;6.45;;;3.92;;
55372;SDS011;41249;47.838;16.490;2022-12-24T01:11:17;4.07;;;3.10;;
55372;SDS011;41249;47.838;16.490;2022-12-24T01:13:44;5.30;;;2.97;;
55372;SDS011;41249;47.838;16.490;2022-12-24T01:16:14;4.03;;;2.38;;
55372;SDS011;41249;47.838;16.490;2022-12-24T01:18:44;3.67;;;2.20;;
55372;SDS011;41249;47.838;16.490;2022-12-24T01:21:10;4.13;;;2.03;;
55372;SDS011;41249;47.838;16.490;2022-12-24T01:23:37;5.05;;;2.15;;
55372;SDS011;41249;47.838;16.490;2022-12-24T01:26:04;2.70;;;1.75;;
55372;SDS011;41249;47.838;16.490;2022-12-24T01:28:31;3.00;;;1.80;;
55372;SDS011;41249;47.838;16.490;2022-12-24T01:30:58;1.98;;;1.70;;
55372;SDS011;41249;47.838;16.490;2022-12-24T01:33:28;3.03;;;1.65;;
55372;SDS011;41249;47.838;16.490;2022-12-24T01:35:55;4.32;;;1.45;;
55372;SDS011;41249;47.838;16.490;2022-12-24T01:38:22;2.25;;;1.60;;
55372;SDS011;41249;47.838;16.490;2022-12-24T01:40:49;2.25;;;1.20;;
55372;SDS011;41249;47.838;16.490;2022-12-24T01:43:34;1.50;;;0.90;;
55372;SDS011;41249;47.838;16.490;2022-12-24T01:46:01;1.30;;;0.70;;
55372;SDS011;41249;47.838;16.490;2022-12-24T01:48:35;1.30;;;0.70;;
55372;SDS011;41249;47.838;16.490;2022-12-24T01:51:15;0.60;;;0.52;;
55372;SDS011;41249;47.838;16.490;2022-12-24T01:53:50;0.80;;;0.40;;
55372;SDS011;41249;47.838;16.490;2022-12-24T01:56:30;0.68;;;0.40;;
55372;SDS011;41249;47.838;16.490;2022-12-24T01:59:05;0.60;;;0.40;;
55372;SDS011;41249;47.838;16.490;2022-12-24T02:01:35;1.02;;;0.60;;
55372;SDS011;41249;47.838;16.490;2022-12-24T02:04:04;1.83;;;1.08;;
55372;SDS011;41249;47.838;16.490;2022-12-24T02:06:49;1.55;;;0.90;;
55372;SDS011;41249;47.838;16.490;2022-12-24T02:09:15;0.68;;;0.60;;
55372;SDS011;41249;47.838;16.490;2022-12-24T02:11:43;0.40;;;0.30;;
55372;SDS011;41249;47.838;16.490;2022-12-24T02:14:10;0.50;;;0.30;;
55372;SDS011;41249;47.838;16.490;2022-12-24T02:16:45;0.35;;;0.30;;
55372;SDS011;41249;47.838;16.490;2022-12-24T02:22:06;1.45;;;0.40;;
55372;SDS011;41249;47.838;16.490;2022-12-24T02:27:35;0.20;;;0.20;;
55372;SDS011;41249;47.838;16.490;2022-12-24T02:37:56;0.70;;;0.30;;
55372;SDS011;41249;47.838;16.490;2022-12-24T02:40:28;0.20;;;0.20;;
55372;SDS011;41249;47.838;16.490;2022-12-24T02:43:02;1.58;;;0.25;;
55372;SDS011;41249;47.838;16.490;2022-12-24T02:48:01;0.75;;;0.15;;
55372;SDS011;41249;47.838;16.490;2022-12-24T02:50:28;0.30;;;0.20;;
55372;SDS011;41249;47.838;16.490;2022-12-24T02:52:55;0.32;;;0.20;;
55372;SDS011;41249;47.838;16.490;2022-12-24T03:01:09;0.77;;;0.13;;
55372;SDS011;41249;47.838;16.490;2022-12-24T03:03:47;0.10;;;0.10;;
55372;SDS011;41249;47.838;16.490;2022-12-24T03:06:24;0.63;;;0.17;;
55372;SDS011;41249;47.838;16.490;2022-12-24T03:09:25;0.52;;;0.45;;
55372;SDS011;41249;47.838;16.490;2022-12-24T03:12:06;0.63;;;0.30;;
55372;SDS011;41249;47.838;16.490;2022-12-24T03:14:39;0.82;;;0.50;;
55372;SDS011;41249;47.838;16.490;2022-12-24T03:17:07;2.70;;;0.40;;
55372;SDS011;41249;47.838;16.490;2022-12-24T03:19:35;0.40;;;0.40;;
55372;SDS011;41249;47.838;16.490;2022-12-24T03:22:04;0.20;;;0.20;;
55372;SDS011;41249;47.838;16.490;2022-12-24T03:24:35;0.20;;;0.20;;
55372;SDS011;41249;47.838;16.490;2022-12-24T03:27:01;0.90;;;0.20;;
55372;SDS011;41249;47.838;16.490;2022-12-24T03:29:31;0.50;;;0.20;;
55372;SDS011;41249;47.838;16.490;2022-12-24T03:31:59;0.20;;;0.20;;
55372;SDS011;41249;47.838;16.490;2022-12-24T03:34:27;2.35;;;0.40;;
55372;SDS011;41249;47.838;16.490;2022-12-24T03:36:55;0.80;;;0.68;;
55372;SDS011;41249;47.838;16.490;2022-12-24T03:39:22;0.52;;;0.40;;
55372;SDS011;41249;47.838;16.490;2022-12-24T03:41:49;0.73;;;0.30;;
55372;SDS011;41249;47.838;16.490;2022-12-24T03:44:15;0.50;;;0.25;;
55372;SDS011;41249;47.838;16.490;2022-12-24T03:46:42;0.30;;;0.30;;
55372;SDS011;41249;47.838;16.490;2022-12-24T03:49:09;1.15;;;0.32;;
55372;SDS011;41249;47.838;16.490;2022-12-24T03:51:35;0.90;;;0.30;;
55372;SDS011;41249;47.838;16.490;2022-12-24T03:54:02;1.30;;;0.40;;
55372;SDS011;41249;47.838;16.490;2022-12-24T03:56:28;1.45;;;0.40;;
55372;SDS011;41249;47.838;16.490;2022-12-24T03:58:55;0.30;;;0.30;;
55372;SDS011;41249;47.838;16.490;2022-12-24T04:01:22;0.40;;;0.20;;
55372;SDS011;41249;47.838;16.490;2022-12-24T04:03:48;1.35;;;0.50;;
55372;SDS011;41249;47.838;16.490;2022-12-24T04:06:15;0.93;;;0.60;;
55372;SDS011;41249;47.838;16.490;2022-12-24T04:08:43;1.15;;;0.60;;
55372;SDS011;41249;47.838;16.490;2022-12-24T04:11:10;0.20;;;0.20;;
55372;SDS011;41249;47.838;16.490;2022-12-24T04:13:38;1.80;;;0.40;;
55372;SDS011;41249;47.838;16.490;2022-12-24T04:16:06;1.15;;;0.65;;
55372;SDS011;41249;47.838;16.490;2022-12-24T04:18:35;2.40;;;0.50;;
55372;SDS011;41249;47.838;16.490;2022-12-24T04:21:02;0.47;;;0.30;;
55372;SDS011;41249;47.838;16.490;2022-12-24T04:23:30;1.35;;;0.65;;
55372;SDS011;41249;47.838;16.490;2022-12-24T04:26:00;0.60;;;0.60;;
55372;SDS011;41249;47.838;16.490;2022-12-24T04:28:29;4.63;;;0.63;;
55372;SDS011;41249;47.838;16.490;2022-12-24T04:30:59;1.00;;;0.50;;
55372;SDS011;41249;47.838;16.490;2022-12-24T04:33:27;1.67;;;0.55;;
55372;SDS011;41249;47.838;16.490;2022-12-24T04:35:57;2.55;;;0.50;;
55372;SDS011;41249;47.838;16.490;2022-12-24T04:38:25;0.52;;;0.50;;
55372;SDS011;41249;47.838;16.490;2022-12-24T04:43:58;1.40;;;0.52;;
55372;SDS011;41249;47.838;16.490;2022-12-24T04:46:26;0.55;;;0.30;;
55372;SDS011;41249;47.838;16.490;2022-12-24T04:48:57;0.85;;;0.30;;
55372;SDS011;41249;47.838;16.490;2022-12-24T04:51:24;0.75;;;0.50;;
55372;SDS011;41249;47.838;16.490;2022-12-24T04:53:52;4.13;;;0.95;;
55372;SDS011;41249;47.838;16.490;2022-12-24T04:56:26;0.32;;;0.20;;
55372;SDS011;41249;47.838;16.490;2022-12-24T04:58:55;0.30;;;0.20;;
55372;SDS011;41249;47.838;16.490;2022-12-24T05:01:23;0.52;;;0.22;;
55372;SDS011;41249;47.838;16.490;2022-12-24T05:03:52;0.20;;;0.20;;
55372;SDS011;41249;47.838;16.490;2022-12-24T05:06:22;0.68;;;0.30;;
55372;SDS011;41249;47.838;16.490;2022-12-24T05:08:54;0.47;;;0.30;;
55372;SDS011;41249;47.838;16.490;2022-12-24T05:11:22;0.32;;;0.28;;
55372;SDS011;41249;47.838;16.490;2022-12-24T05:13:49;0.70;;;0.30;;
55372;SDS011;41249;47.838;16.490;2022-12-24T05:16:16;0.30;;;0.30;;
55372;SDS011;41249;47.838;16.490;2022-12-24T05:18:44;0.32;;;0.30;;
55372;SDS011;41249;47.838;16.490;2022-12-24T05:21:15;0.68;;;0.30;;
55372;SDS011;41249;47.838;16.490;2022-12-24T05:23:45;3.97;;;1.65;;
55372;SDS011;41249;47.838;16.490;2022-12-24T05:26:32;0.30;;;0.30;;
55372;SDS011;41249;47.838;16.490;2022-12-24T05:29:00;0.57;;;0.30;;
55372;SDS011;41249;47.838;16.490;2022-12-24T05:31:28;0.68;;;0.38;;
55372;SDS011;41249;47.838;16.490;2022-12-24T05:33:56;0.30;;;0.30;;
55372;SDS011;41249;47.838;16.490;2022-12-24T05:36:23;1.90;;;0.40;;
55372;SDS011;41249;47.838;16.490;2022-12-24T05:38:50;0.57;;;0.35;;
55372;SDS011;41249;47.838;16.490;2022-12-24T05:41:17;1.67;;;0.43;;
55372;SDS011;41249;47.838;16.490;2022-12-24T05:43:44;0.40;;;0.40;;
55372;SDS011;41249;47.838;16.490;2022-12-24T05:46:12;0.38;;;0.30;;
55372;SDS011;41249;47.838;16.490;2022-12-24T05:48:41;2.83;;;0.55;;
55372;SDS011;41249;47.838;16.490;2022-12-24T05:51:08;2.42;;;0.70;;
55372;SDS011;41249;47.838;16.490;2022-12-24T05:53:37;1.40;;;0.50;;
55372;SDS011;41249;47.838;16.490;2022-12-24T05:56:05;0.85;;;0.40;;
55372;SDS011;41249;47.838;16.490;2022-12-24T05:58:33;0.98;;;0.50;;
55372;SDS011;41249;47.838;16.490;2022-12-24T06:01:00;1.10;;;0.40;;
55372;SDS011;41249;47.838;16.490;2022-12-24T06:03:28;0.88;;;0.50;;
55372;SDS011;41249;47.838;16.490;2022-12-24T06:05:57;2.38;;;0.35;;
55372;SDS011;41249;47.838;16.490;2022-12-24T06:08:28;1.75;;;0.63;;
55372;SDS011;41249;47.838;16.490;2022-12-24T06:10:56;1.77;;;0.50;;
55372;SDS011;41249;47.838;16.490;2022-12-24T06:13:26;0.98;;;0.40;;
55372;SDS011;41249;47.838;16.490;2022-12-24T06:15:54;1.52;;;0.63;;
55372;SDS011;41249;47.838;16.490;2022-12-24T06:18:21;0.85;;;0.57;;
55372;SDS011;41249;47.838;16.490;2022-12-24T06:20:52;1.30;;;0.30;;
55372;SDS011;41249;47.838;16.490;2022-12-24T06:23:20;1.92;;;0.50;;
55372;SDS011;41249;47.838;16.490;2022-12-24T06:25:47;0.43;;;0.40;;
55372;SDS011;41249;47.838;16.490;2022-12-24T06:28:14;3.42;;;0.90;;
55372;SDS011;41249;47.838;16.490;2022-12-24T06:30:44;1.88;;;0.50;;
55372;SDS011;41249;47.838;16.490;2022-12-24T06:33:12;1.33;;;0.35;;
55372;SDS011;41249;47.838;16.490;2022-12-24T06:35:39;1.45;;;0.75;;
55372;SDS011;41249;47.838;16.490;2022-12-24T06:38:06;0.77;;;0.40;;
55372;SDS011;41249;47.838;16.490;2022-12-24T06:40:33;1.45;;;0.70;;
55372;SDS011;41249;47.838;16.490;2022-12-24T06:42:59;1.77;;;0.45;;
55372;SDS011;41249;47.838;16.490;2022-12-24T06:45:26;1.05;;;0.45;;
55372;SDS011;41249;47.838;16.490;2022-12-24T06:47:52;1.35;;;0.60;;
55372;SDS011;41249;47.838;16.490;2022-12-24T06:50:19;0.22;;;0.22;;
55372;SDS011;41249;47.838;16.490;2022-12-24T06:52:46;1.30;;;0.40;;
55372;SDS011;41249;47.838;16.490;2022-12-24T06:55:12;2.10;;;0.50;;
55372;SDS011;41249;47.838;16.490;2022-12-24T06:57:39;0.28;;;0.20;;
55372;SDS011;41249;47.838;16.490;2022-12-24T07:00:06;1.02;;;0.40;;
55372;SDS011;41249;47.838;16.490;2022-12-24T07:02:34;3.67;;;1.23;;
55372;SDS011;41249;47.838;16.490;2022-12-24T07:05:00;1.17;;;0.60;;
55372;SDS011;41249;47.838;16.490;2022-12-24T07:07:27;0.65;;;0.35;;
55372;SDS011;41249;47.838;16.490;2022-12-24T07:09:54;3.30;;;1.33;;
55372;SDS011;41249;47.838;16.490;2022-12-24T07:12:21;6.68;;;2.85;;
55372;SDS011;41249;47.838;16.490;2022-12-24T07:14:48;5.38;;;1.98;;
55372;SDS011;41249;47.838;16.490;2022-12-24T07:17:14;3.63;;;1.20;;
55372;SDS011;41249;47.838;16.490;2022-12-24T07:19:41;4.03;;;2.55;;
55372;SDS011;41249;47.838;16.490;2022-12-24T07:22:07;1.48;;;1.15;;
55372;SDS011;41249;47.838;16.490;2022-12-24T07:24:40;3.13;;;1.10;;
55372;SDS011;41249;47.838;16.490;2022-12-24T07:27:07;2.15;;;1.10;;
55372;SDS011;41249;47.838;16.490;2022-12-24T07:29:34;3.17;;;1.15;;
55372;SDS011;41249;47.838;16.490;2022-12-24T07:32:00;4.53;;;1.70;;
55372;SDS011;41249;47.838;16.490;2022-12-24T07:34:27;4.22;;;2.10;;
55372;SDS011;41249;47.838;16.490;2022-12-24T07:36:54;6.90;;;2.88;;
55372;SDS011;41249;47.838;16.490;2022-12-24T07:39:20;3.97;;;1.88;;
55372;SDS011;41249;47.838;16.490;2022-12-24T07:41:47;5.22;;;2.63;;
55372;SDS011;41249;47.838;16.490;2022-12-24T07:44:15;4.88;;;2.28;;
55372;SDS011;41249;47.838;16.490;2022-12-24T07:46:43;3.60;;;1.77;;
55372;SDS011;41249;47.838;16.490;2022-12-24T07:49:10;3.95;;;1.40;;
55372;SDS011;41249;47.838;16.490;2022-12-24T07:51:36;1.83;;;0.85;;
55372;SDS011;41249;47.838;16.490;2022-12-24T07:54:03;1.23;;;0.63;;
55372;SDS011;41249;47.838;16.490;2022-12-24T07:56:30;0.43;;;0.43;;
55372;SDS011;41249;47.838;16.490;2022-12-24T07:58:57;0.63;;;0.50;;
55372;SDS011;41249;47.838;16.490;2022-12-24T08:01:24;2.58;;;2.00;;
55372;SDS011;41249;47.838;16.490;2022-12-24T08:03:51;2.55;;;1.60;;
55372;SDS011;41249;47.838;16.490;2022-12-24T08:06:20;3.38;;;1.77;;
55372;SDS011;41249;47.838;16.490;2022-12-24T08:08:47;1.77;;;0.95;;
55372;SDS011;41249;47.838;16.490;2022-12-24T08:11:14;0.88;;;0.55;;
55372;SDS011;41249;47.838;16.490;2022-12-24T08:13:41;2.03;;;0.73;;
55372;SDS011;41249;47.838;16.490;2022-12-24T08:16:08;1.33;;;0.77;;
55372;SDS011;41249;47.838;16.490;2022-12-24T08:18:35;4.20;;;1.10;;
55372;SDS011;41249;47.838;16.490;2022-12-24T08:21:01;1.30;;;0.60;;
55372;SDS011;41249;47.838;16.490;2022-12-24T08:23:29;2.25;;;1.48;;
55372;SDS011;41249;47.838;16.490;2022-12-24T08:25:55;1.92;;;0.73;;
55372;SDS011;41249;47.838;16.490;2022-12-24T08:28:22;3.92;;;2.15;;
55372;SDS011;41249;47.838;16.490;2022-12-24T08:30:49;3.85;;;2.25;;
55372;SDS011;41249;47.838;16.490;2022-12-24T08:33:16;3.72;;;2.42;;
55372;SDS011;41249;47.838;16.490;2022-12-24T08:35:50;3.47;;;1.92;;
55372;SDS011;41249;47.838;16.490;2022-12-24T08:38:19;2.15;;;0.90;;
55372;SDS011;41249;47.838;16.490;2022-12-24T08:40:45;5.13;;;0.90;;
55372;SDS011;41249;47.838;16.490;2022-12-24T08:43:15;2.67;;;0.70;;
55372;SDS011;41249;47.838;16.490;2022-12-24T08:45:42;4.43;;;1.63;;
55372;SDS011;41249;47.838;16.490;2022-12-24T08:48:09;3.03;;;1.23;;
55372;SDS011;41249;47.838;16.490;2022-12-24T08:50:40;3.28;;;1.13;;
55372;SDS011;41249;47.838;16.490;2022-12-24T08:53:08;5.97;;;2.42;;
55372;SDS011;41249;47.838;16.490;2022-12-24T08:55:35;3.45;;;2.00;;
55372;SDS011;41249;47.838;16.490;2022-12-24T08:58:02;2.55;;;1.50;;
55372;SDS011;41249;47.838;16.490;2022-12-24T09:00:29;2.50;;;1.35;;
55372;SDS011;41249;47.838;16.490;2022-12-24T09:02:56;4.07;;;1.60;;
55372;SDS011;41249;47.838;16.490;2022-12-24T09:05:23;5.97;;;1.58;;
55372;SDS011;41249;47.838;16.490;2022-12-24T09:07:51;9.57;;;2.88;;
55372;SDS011;41249;47.838;16.490;2022-12-24T09:10:18;1.45;;;0.80;;
55372;SDS011;41249;47.838;16.490;2022-12-24T09:12:44;1.30;;;0.65;;
55372;SDS011;41249;47.838;16.490;2022-12-24T09:15:11;10.85;;;3.83;;
55372;SDS011;41249;47.838;16.490;2022-12-24T09:17:39;12.45;;;4.22;;
55372;SDS011;41249;47.838;16.490;2022-12-24T09:20:06;4.22;;;1.52;;
55372;SDS011;41249;47.838;16.490;2022-12-24T09:22:37;1.65;;;1.05;;
55372;SDS011;41249;47.838;16.490;2022-12-24T09:25:05;2.20;;;1.33;;
55372;SDS011;41249;47.838;16.490;2022-12-24T09:27:32;4.70;;;1.80;;
55372;SDS011;41249;47.838;16.490;2022-12-24T09:29:58;2.42;;;1.17;;
55372;SDS011;41249;47.838;16.490;2022-12-24T09:32:25;2.03;;;0.88;;
55372;SDS011;41249;47.838;16.490;2022-12-24T09:34:52;1.75;;;1.00;;
55372;SDS011;41249;47.838;16.490;2022-12-24T09:37:19;5.20;;;2.13;;
55372;SDS011;41249;47.838;16.490;2022-12-24T09:39:45;5.40;;;1.70;;
55372;SDS011;41249;47.838;16.490;2022-12-24T09:44:53;3.15;;;1.55;;
55372;SDS011;41249;47.838;16.490;2022-12-24T09:50:39;2.65;;;1.05;;
55372;SDS011;41249;47.838;16.490;2022-12-24T09:55:57;3.67;;;1.45;;
55372;SDS011;41249;47.838;16.490;2022-12-24T09:58:32;3.93;;;1.30;;
55372;SDS011;41249;47.838;16.490;2022-12-24T10:01:02;4.22;;;1.40;;
55372;SDS011;41249;47.838;16.490;2022-12-24T10:03:29;2.47;;;1.00;;
55372;SDS011;41249;47.838;16.490;2022-12-24T10:06:02;3.33;;;1.00;;
55372;SDS011;41249;47.838;16.490;2022-12-24T10:08:47;3.92;;;1.60;;
55372;SDS011;41249;47.838;16.490;2022-12-24T10:22:45;3.25;;;1.60;;
55372;SDS011;41249;47.838;16.490;2022-12-24T10:27:59;3.10;;;1.10;;
55372;SDS011;41249;47.838;16.490;2022-12-24T10:30:31;3.17;;;1.42;;
55372;SDS011;41249;47.838;16.490;2022-12-24T10:32:59;3.75;;;1.50;;
55372;SDS011;41249;47.838;16.490;2022-12-24T10:35:31;5.15;;;1.88;;
55372;SDS011;41249;47.838;16.490;2022-12-24T10:38:01;4.78;;;1.27;;
55372;SDS011;41249;47.838;16.490;2022-12-24T10:40:31;3.58;;;1.17;;
55372;SDS011;41249;47.838;16.490;2022-12-24T10:43:13;3.10;;;0.90;;
55372;SDS011;41249;47.838;16.490;2022-12-24T10:45:43;2.70;;;1.00;;
55372;SDS011;41249;47.838;16.490;2022-12-24T10:48:19;3.97;;;1.10;;
55372;SDS011;41249;47.838;16.490;2022-12-24T10:50:55;1.85;;;0.68;;
55372;SDS011;41249;47.838;16.490;2022-12-24T10:53:35;2.75;;;0.95;;
55372;SDS011;41249;47.838;16.490;2022-12-24T10:56:08;4.13;;;0.80;;
55372;SDS011;41249;47.838;16.490;2022-12-24T10:58:41;4.93;;;0.95;;
55372;SDS011;41249;47.838;16.490;2022-12-24T11:01:10;5.82;;;1.10;;
55372;SDS011;41249;47.838;16.490;2022-12-24T11:03:37;2.10;;;0.80;;
55372;SDS011;41249;47.838;16.490;2022-12-24T11:06:12;4.38;;;1.35;;
55372;SDS011;41249;47.838;16.490;2022-12-24T11:08:41;3.25;;;0.90;;
55372;SDS011;41249;47.838;16.490;2022-12-24T11:11:10;2.53;;;0.68;;
55372;SDS011;41249;47.838;16.490;2022-12-24T11:13:44;3.15;;;1.38;;
55372;SDS011;41249;47.838;16.490;2022-12-24T11:16:35;6.63;;;0.82;;
55372;SDS011;41249;47.838;16.490;2022-12-24T11:19:03;5.20;;;1.10;;
55372;SDS011;41249;47.838;16.490;2022-12-24T11:21:36;2.97;;;0.75;;
55372;SDS011;41249;47.838;16.490;2022-12-24T11:26:39;3.95;;;1.30;;
55372;SDS011;41249;47.838;16.490;2022-12-24T11:29:12;6.32;;;1.48;;
55372;SDS011;41249;47.838;16.490;2022-12-24T11:31:45;3.40;;;1.27;;
55372;SDS011;41249;47.838;16.490;2022-12-24T11:37:15;2.00;;;0.80;;
55372;SDS011;41249;47.838;16.490;2022-12-24T11:42:25;3.65;;;1.20;;
55372;SDS011;41249;47.838;16.490;2022-12-24T11:44:57;10.57;;;1.45;;
55372;SDS011;41249;47.838;16.490;2022-12-24T11:47:34;6.22;;;1.05;;
55372;SDS011;41249;47.838;16.490;2022-12-24T11:50:19;3.83;;;1.10;;
55372;SDS011;41249;47.838;16.490;2022-12-24T11:52:46;4.30;;;1.10;;
55372;SDS011;41249;47.838;16.490;2022-12-24T11:55:16;3.17;;;1.00;;
55372;SDS011;41249;47.838;16.490;2022-12-24T12:00:25;4.70;;;0.75;;
55372;SDS011;41249;47.838;16.490;2022-12-24T12:02:53;3.55;;;0.70;;
55372;SDS011;41249;47.838;16.490;2022-12-24T12:05:24;7.13;;;1.45;;
55372;SDS011;41249;47.838;16.490;2022-12-24T12:07:57;4.15;;;0.90;;
55372;SDS011;41249;47.838;16.490;2022-12-24T12:10:55;1.85;;;0.63;;
55372;SDS011;41249;47.838;16.490;2022-12-24T12:13:26;3.40;;;1.00;;
55372;SDS011;41249;47.838;16.490;2022-12-24T12:18:51;4.50;;;1.10;;
55372;SDS011;41249;47.838;16.490;2022-12-24T12:21:26;2.28;;;0.70;;
55372;SDS011;41249;47.838;16.490;2022-12-24T12:24:04;3.60;;;1.00;;
55372;SDS011;41249;47.838;16.490;2022-12-24T12:26:36;4.40;;;1.08;;
55372;SDS011;41249;47.838;16.490;2022-12-24T12:29:13;11.25;;;1.15;;
55372;SDS011;41249;47.838;16.490;2022-12-24T12:31:56;2.83;;;0.65;;
55372;SDS011;41249;47.838;16.490;2022-12-24T12:34:38;2.92;;;0.88;;
55372;SDS011;41249;47.838;16.490;2022-12-24T12:39:43;2.42;;;0.70;;
55372;SDS011;41249;47.838;16.490;2022-12-24T12:50:33;2.70;;;0.77;;
55372;SDS011;41249;47.838;16.490;2022-12-24T12:58:58;2.28;;;0.50;;
55372;SDS011;41249;47.838;16.490;2022-12-24T13:01:38;0.55;;;0.40;;
55372;SDS011;41249;47.838;16.490;2022-12-24T13:07:18;0.60;;;0.40;;
55372;SDS011;41249;47.838;16.490;2022-12-24T13:10:27;1.55;;;0.40;;
55372;SDS011;41249;47.838;16.490;2022-12-24T13:16:17;0.32;;;0.30;;
55372;SDS011;41249;47.838;16.490;2022-12-24T13:21:27;0.85;;;0.40;;
55372;SDS011;41249;47.838;16.490;2022-12-24T13:26:40;0.52;;;0.45;;
55372;SDS011;41249;47.838;16.490;2022-12-24T13:34:47;3.20;;;0.55;;
55372;SDS011;41249;47.838;16.490;2022-12-24T13:37:22;0.65;;;0.40;;
55372;SDS011;41249;47.838;16.490;2022-12-24T13:43:07;1.35;;;0.50;;
55372;SDS011;41249;47.838;16.490;2022-12-24T13:47:56;1.10;;;0.55;;
55372;SDS011;41249;47.838;16.490;2022-12-24T13:55:50;2.05;;;0.80;;
55372;SDS011;41249;47.838;16.490;2022-12-24T13:58:19;2.95;;;0.70;;
55372;SDS011;41249;47.838;16.490;2022-12-24T14:00:51;3.15;;;0.80;;
55372;SDS011;41249;47.838;16.490;2022-12-24T14:03:22;0.80;;;0.57;;
55372;SDS011;41249;47.838;16.490;2022-12-24T14:05:55;3.73;;;0.70;;
55372;SDS011;41249;47.838;16.490;2022-12-24T14:08:35;2.15;;;0.60;;
55372;SDS011;41249;47.838;16.490;2022-12-24T14:16:27;2.72;;;1.10;;
55372;SDS011;41249;47.838;16.490;2022-12-24T14:19:03;2.40;;;0.80;;
55372;SDS011;41249;47.838;16.490;2022-12-24T14:21:44;2.53;;;0.57;;
55372;SDS011;41249;47.838;16.490;2022-12-24T14:24:55;2.65;;;1.13;;
55372;SDS011;41249;47.838;16.490;2022-12-24T14:30:19;1.92;;;0.75;;
55372;SDS011;41249;47.838;16.490;2022-12-24T14:32:48;1.25;;;0.43;;
55372;SDS011;41249;47.838;16.490;2022-12-24T14:35:26;3.95;;;0.52;;
55372;SDS011;41249;47.838;16.490;2022-12-24T14:37:56;3.40;;;0.85;;
55372;SDS011;41249;47.838;16.490;2022-12-24T14:40:28;2.63;;;0.57;;
55372;SDS011;41249;47.838;16.490;2022-12-24T14:54:21;2.08;;;0.82;;
55372;SDS011;41249;47.838;16.490;2022-12-24T15:00:16;1.58;;;1.00;;
55372;SDS011;41249;47.838;16.490;2022-12-24T15:05:17;2.35;;;1.17;;
55372;SDS011;41249;47.838;16.490;2022-12-24T15:07:55;2.10;;;0.90;;
55372;SDS011;41249;47.838;16.490;2022-12-24T15:10:30;4.47;;;1.42;;
55372;SDS011;41249;47.838;16.490;2022-12-24T15:13:04;4.65;;;1.30;;
55372;SDS011;41249;47.838;16.490;2022-12-24T15:15:51;2.83;;;1.00;;
55372;SDS011;41249;47.838;16.490;2022-12-24T15:18:21;1.92;;;0.98;;
55372;SDS011;41249;47.838;16.490;2022-12-24T15:20:51;2.25;;;1.10;;
55372;SDS011;41249;47.838;16.490;2022-12-24T15:23:30;4.32;;;1.30;;
55372;SDS011;41249;47.838;16.490;2022-12-24T15:26:13;5.10;;;1.88;;
55372;SDS011;41249;47.838;16.490;2022-12-24T15:31:14;2.88;;;1.10;;
55372;SDS011;41249;47.838;16.490;2022-12-24T15:33:43;6.10;;;1.70;;
55372;SDS011;41249;47.838;16.490;2022-12-24T15:36:11;5.80;;;1.88;;
55372;SDS011;41249;47.838;16.490;2022-12-24T15:38:44;8.70;;;2.70;;
55372;SDS011;41249;47.838;16.490;2022-12-24T15:41:23;6.10;;;2.45;;
55372;SDS011;41249;47.838;16.490;2022-12-24T15:43:58;4.70;;;2.00;;
55372;SDS011;41249;47.838;16.490;2022-12-24T15:46:27;5.40;;;1.80;;
55372;SDS011;41249;47.838;16.490;2022-12-24T15:48:56;6.00;;;1.83;;
55372;SDS011;41249;47.838;16.490;2022-12-24T15:51:25;3.60;;;1.30;;
55372;SDS011;41249;47.838;16.490;2022-12-24T15:54:00;6.65;;;2.05;;
55372;SDS011;41249;47.838;16.490;2022-12-24T15:56:33;12.50;;;3.95;;
55372;SDS011;41249;47.838;16.490;2022-12-24T16:01:54;5.57;;;1.90;;
55372;SDS011;41249;47.838;16.490;2022-12-24T16:04:24;7.57;;;2.10;;
55372;SDS011;41249;47.838;16.490;2022-12-24T16:06:56;4.63;;;1.65;;
55372;SDS011;41249;47.838;16.490;2022-12-24T16:09:43;1.88;;;1.25;;
55372;SDS011;41249;47.838;16.490;2022-12-24T16:12:12;3.13;;;1.38;;
55372;SDS011;41249;47.838;16.490;2022-12-24T16:14:52;1.88;;;1.30;;
55372;SDS011;41249;47.838;16.490;2022-12-24T16:17:26;3.65;;;1.15;;
55372;SDS011;41249;47.838;16.490;2022-12-24T16:20:05;4.20;;;1.30;;
55372;SDS011;41249;47.838;16.490;2022-12-24T16:22:44;3.08;;;1.10;;
55372;SDS011;41249;47.838;16.490;2022-12-24T16:25:20;4.93;;;1.25;;
55372;SDS011;41249;47.838;16.490;2022-12-24T16:27:49;2.83;;;0.90;;
55372;SDS011;41249;47.838;16.490;2022-12-24T16:30:16;6.88;;;1.25;;
55372;SDS011;41249;47.838;16.490;2022-12-24T16:32:44;3.40;;;1.20;;
55372;SDS011;41249;47.838;16.490;2022-12-24T16:35:21;4.72;;;1.20;;
55372;SDS011;41249;47.838;16.490;2022-12-24T16:37:51;4.88;;;1.30;;
55372;SDS011;41249;47.838;16.490;2022-12-24T16:40:19;5.30;;;1.27;;
55372;SDS011;41249;47.838;16.490;2022-12-24T16:45:38;2.38;;;1.13;;
55372;SDS011;41249;47.838;16.490;2022-12-24T16:48:05;3.30;;;1.08;;
55372;SDS011;41249;47.838;16.490;2022-12-24T16:50:32;5.57;;;1.80;;
55372;SDS011;41249;47.838;16.490;2022-12-24T16:52:59;4.20;;;2.00;;
55372;SDS011;41249;47.838;16.490;2022-12-24T16:55:26;4.70;;;1.73;;
55372;SDS011;41249;47.838;16.490;2022-12-24T16:57:52;4.28;;;1.60;;
55372;SDS011;41249;47.838;16.490;2022-12-24T17:00:20;17.80;;;8.10;;
55372;SDS011;41249;47.838;16.490;2022-12-24T17:02:48;5.65;;;2.53;;
55372;SDS011;41249;47.838;16.490;2022-12-24T17:05:15;4.78;;;1.92;;
55372;SDS011;41249;47.838;16.490;2022-12-24T17:07:42;4.78;;;2.40;;
55372;SDS011;41249;47.838;16.490;2022-12-24T17:10:10;6.75;;;2.88;;